sensor_id;sensor_type;location;lat;lon;timestamp;P1;durP1;ratioP1;P2;durP2;ratioP2
80778;SDS011;70170;47.856;10.956;2024-03-23T00:55:28;1.55;;;1.45;;
80778;SDS011;70170;47.856;10.956;2024-03-23T00:57:53;3.08;;;1.85;;
80778;SDS011;70170;47.856;10.956;2024-03-23T01:00:19;2.75;;;1.88;;
80778;SDS011;70170;47.856;10.956;2024-03-23T01:02:44;2.53;;;1.70;;
80778;SDS011;70170;47.856;10.956;2024-03-23T01:05:09;2.00;;;1.60;;
80778;SDS011;70170;47.856;10.956;2024-03-23T01:07:35;4.32;;;1.90;;
80778;SDS011;70170;47.856;10.956;2024-03-23T01:10:00;2.75;;;1.90;;
80778;SDS011;70170;47.856;10.956;2024-03-23T01:12:25;2.17;;;1.77;;
80778;SDS011;70170;47.856;10.956;2024-03-23T01:14:51;2.10;;;1.90;;
80778;SDS011;70170;47.856;10.956;2024-03-23T01:17:16;3.85;;;1.77;;
80778;SDS011;70170;47.856;10.956;2024-03-23T01:19:41;4.47;;;2.13;;
80778;SDS011;70170;47.856;10.956;2024-03-23T01:22:07;3.97;;;1.90;;
80778;SDS011;70170;47.856;10.956;2024-03-23T01:24:35;2.38;;;1.83;;
80778;SDS011;70170;47.856;10.956;2024-03-23T01:27:00;1.92;;;1.80;;
80778;SDS011;70170;47.856;10.956;2024-03-23T01:29:26;2.03;;;1.58;;
80778;SDS011;70170;47.856;10.956;2024-03-23T01:31:51;1.73;;;1.63;;
80778;SDS011;70170;47.856;10.956;2024-03-23T01:34:16;1.70;;;1.60;;
80778;SDS011;70170;47.856;10.956;2024-03-23T01:36:41;3.00;;;2.13;;
80778;SDS011;70170;47.856;10.956;2024-03-23T01:39:07;1.83;;;1.73;;
80778;SDS011;70170;47.856;10.956;2024-03-23T01:41:34;4.38;;;2.55;;
80778;SDS011;70170;47.856;10.956;2024-03-23T01:44:00;1.75;;;1.65;;
80778;SDS011;70170;47.856;10.956;2024-03-23T01:46:30;2.40;;;1.80;;
80778;SDS011;70170;47.856;10.956;2024-03-23T01:48:55;3.75;;;1.85;;
80778;SDS011;70170;47.856;10.956;2024-03-23T01:51:20;1.83;;;1.45;;
80778;SDS011;70170;47.856;10.956;2024-03-23T01:53:46;1.90;;;1.70;;
80778;SDS011;70170;47.856;10.956;2024-03-23T01:56:11;3.22;;;1.90;;
80778;SDS011;70170;47.856;10.956;2024-03-23T01:58:38;1.92;;;1.70;;
80778;SDS011;70170;47.856;10.956;2024-03-23T02:01:03;2.33;;;1.80;;
80778;SDS011;70170;47.856;10.956;2024-03-23T02:03:29;1.80;;;1.70;;
80778;SDS011;70170;47.856;10.956;2024-03-23T02:05:54;4.50;;;2.08;;
80778;SDS011;70170;47.856;10.956;2024-03-23T02:08:21;3.20;;;2.08;;
80778;SDS011;70170;47.856;10.956;2024-03-23T02:10:48;5.75;;;1.75;;
80778;SDS011;70170;47.856;10.956;2024-03-23T02:13:14;1.63;;;1.52;;
80778;SDS011;70170;47.856;10.956;2024-03-23T02:15:40;1.75;;;1.65;;
80778;SDS011;70170;47.856;10.956;2024-03-23T02:18:08;3.17;;;1.80;;
80778;SDS011;70170;47.856;10.956;2024-03-23T02:20:34;2.25;;;1.75;;
80778;SDS011;70170;47.856;10.956;2024-03-23T02:23:00;3.70;;;1.88;;
80778;SDS011;70170;47.856;10.956;2024-03-23T02:25:26;2.53;;;1.85;;
80778;SDS011;70170;47.856;10.956;2024-03-23T02:27:51;1.95;;;1.85;;
80778;SDS011;70170;47.856;10.956;2024-03-23T02:30:19;2.65;;;2.15;;
80778;SDS011;70170;47.856;10.956;2024-03-23T02:32:44;4.68;;;2.33;;
80778;SDS011;70170;47.856;10.956;2024-03-23T02:35:10;2.78;;;2.17;;
80778;SDS011;70170;47.856;10.956;2024-03-23T02:37:35;7.25;;;2.10;;
80778;SDS011;70170;47.856;10.956;2024-03-23T02:40:00;4.22;;;1.63;;
80778;SDS011;70170;47.856;10.956;2024-03-23T02:42:25;3.35;;;2.22;;
80778;SDS011;70170;47.856;10.956;2024-03-23T02:44:51;1.95;;;1.85;;
80778;SDS011;70170;47.856;10.956;2024-03-23T02:47:16;3.83;;;1.83;;
80778;SDS011;70170;47.856;10.956;2024-03-23T02:49:41;4.43;;;1.98;;
80778;SDS011;70170;47.856;10.956;2024-03-23T02:52:07;1.88;;;1.77;;
80778;SDS011;70170;47.856;10.956;2024-03-23T02:54:32;2.83;;;2.28;;
80778;SDS011;70170;47.856;10.956;2024-03-23T02:56:57;4.07;;;2.00;;
80778;SDS011;70170;47.856;10.956;2024-03-23T02:59:23;4.22;;;1.50;;
80778;SDS011;70170;47.856;10.956;2024-03-23T03:01:48;3.53;;;1.75;;
80778;SDS011;70170;47.856;10.956;2024-03-23T03:04:13;3.45;;;1.67;;
80778;SDS011;70170;47.856;10.956;2024-03-23T03:06:38;3.83;;;1.92;;
80778;SDS011;70170;47.856;10.956;2024-03-23T03:09:04;2.08;;;1.50;;
80778;SDS011;70170;47.856;10.956;2024-03-23T03:11:29;3.88;;;1.35;;
80778;SDS011;70170;47.856;10.956;2024-03-23T03:13:55;3.78;;;1.42;;
80778;SDS011;70170;47.856;10.956;2024-03-23T03:16:20;1.25;;;1.17;;
80778;SDS011;70170;47.856;10.956;2024-03-23T03:18:45;1.50;;;1.40;;
80778;SDS011;70170;47.856;10.956;2024-03-23T03:21:11;1.90;;;1.35;;
80778;SDS011;70170;47.856;10.956;2024-03-23T03:23:37;2.20;;;1.40;;
80778;SDS011;70170;47.856;10.956;2024-03-23T03:26:03;1.50;;;1.40;;
80778;SDS011;70170;47.856;10.956;2024-03-23T03:28:29;1.30;;;1.20;;
80778;SDS011;70170;47.856;10.956;2024-03-23T03:30:56;2.03;;;1.50;;
80778;SDS011;70170;47.856;10.956;2024-03-23T03:33:22;1.98;;;1.20;;
80778;SDS011;70170;47.856;10.956;2024-03-23T03:35:47;1.65;;;1.48;;
80778;SDS011;70170;47.856;10.956;2024-03-23T03:38:12;4.45;;;1.75;;
80778;SDS011;70170;47.856;10.956;2024-03-23T03:40:38;2.72;;;1.60;;
80778;SDS011;70170;47.856;10.956;2024-03-23T03:43:03;2.67;;;1.45;;
80778;SDS011;70170;47.856;10.956;2024-03-23T03:45:29;2.53;;;1.40;;
80778;SDS011;70170;47.856;10.956;2024-03-23T03:47:54;3.55;;;1.30;;
80778;SDS011;70170;47.856;10.956;2024-03-23T03:50:19;1.65;;;1.33;;
80778;SDS011;70170;47.856;10.956;2024-03-23T03:52:46;1.50;;;1.30;;
80778;SDS011;70170;47.856;10.956;2024-03-23T03:55:12;1.65;;;1.40;;
80778;SDS011;70170;47.856;10.956;2024-03-23T03:57:39;2.10;;;1.45;;
80778;SDS011;70170;47.856;10.956;2024-03-23T04:00:05;2.92;;;1.52;;
80778;SDS011;70170;47.856;10.956;2024-03-23T04:02:31;1.40;;;1.30;;
80778;SDS011;70170;47.856;10.956;2024-03-23T04:04:56;3.10;;;1.40;;
80778;SDS011;70170;47.856;10.956;2024-03-23T04:07:22;1.40;;;1.05;;
80778;SDS011;70170;47.856;10.956;2024-03-23T04:09:48;1.88;;;1.20;;
80778;SDS011;70170;47.856;10.956;2024-03-23T04:12:13;2.08;;;1.48;;
80778;SDS011;70170;47.856;10.956;2024-03-23T04:14:39;4.18;;;1.45;;
80778;SDS011;70170;47.856;10.956;2024-03-23T04:17:04;1.92;;;1.63;;
80778;SDS011;70170;47.856;10.956;2024-03-23T04:19:29;1.70;;;1.10;;
80778;SDS011;70170;47.856;10.956;2024-03-23T04:21:55;2.40;;;1.30;;
80778;SDS011;70170;47.856;10.956;2024-03-23T04:24:20;2.22;;;1.30;;
80778;SDS011;70170;47.856;10.956;2024-03-23T04:26:47;1.65;;;1.20;;
80778;SDS011;70170;47.856;10.956;2024-03-23T04:29:13;1.58;;;1.30;;
80778;SDS011;70170;47.856;10.956;2024-03-23T04:31:38;1.52;;;1.30;;
80778;SDS011;70170;47.856;10.956;2024-03-23T04:34:03;1.27;;;1.20;;
80778;SDS011;70170;47.856;10.956;2024-03-23T04:36:29;2.60;;;1.40;;
80778;SDS011;70170;47.856;10.956;2024-03-23T04:38:55;1.40;;;1.30;;
80778;SDS011;70170;47.856;10.956;2024-03-23T04:41:21;1.25;;;1.15;;
80778;SDS011;70170;47.856;10.956;2024-03-23T04:43:47;4.18;;;1.48;;
80778;SDS011;70170;47.856;10.956;2024-03-23T04:46:12;1.30;;;1.20;;
80778;SDS011;70170;47.856;10.956;2024-03-23T04:48:38;1.40;;;1.30;;
80778;SDS011;70170;47.856;10.956;2024-03-23T04:51:03;1.20;;;1.15;;
80778;SDS011;70170;47.856;10.956;2024-03-23T04:53:29;2.67;;;1.40;;
80778;SDS011;70170;47.856;10.956;2024-03-23T04:55:57;1.42;;;1.30;;
80778;SDS011;70170;47.856;10.956;2024-03-23T04:58:24;6.80;;;1.30;;
80778;SDS011;70170;47.856;10.956;2024-03-23T05:00:55;2.03;;;1.20;;
80778;SDS011;70170;47.856;10.956;2024-03-23T05:03:21;2.85;;;1.35;;
80778;SDS011;70170;47.856;10.956;2024-03-23T05:05:47;4.20;;;1.50;;
80778;SDS011;70170;47.856;10.956;2024-03-23T05:08:13;6.72;;;1.45;;
80778;SDS011;70170;47.856;10.956;2024-03-23T05:10:40;1.83;;;1.20;;
80778;SDS011;70170;47.856;10.956;2024-03-23T05:13:06;4.35;;;1.33;;
80778;SDS011;70170;47.856;10.956;2024-03-23T05:15:31;1.40;;;1.30;;
80778;SDS011;70170;47.856;10.956;2024-03-23T05:17:57;2.80;;;1.58;;
80778;SDS011;70170;47.856;10.956;2024-03-23T05:20:22;3.35;;;1.55;;
80778;SDS011;70170;47.856;10.956;2024-03-23T05:22:47;1.40;;;1.30;;
80778;SDS011;70170;47.856;10.956;2024-03-23T05:25:13;1.50;;;1.13;;
80778;SDS011;70170;47.856;10.956;2024-03-23T05:27:38;3.30;;;1.40;;
80778;SDS011;70170;47.856;10.956;2024-03-23T05:30:04;1.30;;;1.20;;
80778;SDS011;70170;47.856;10.956;2024-03-23T05:32:30;1.60;;;1.30;;
80778;SDS011;70170;47.856;10.956;2024-03-23T05:34:56;1.42;;;1.15;;
80778;SDS011;70170;47.856;10.956;2024-03-23T05:37:22;1.38;;;1.27;;
80778;SDS011;70170;47.856;10.956;2024-03-23T05:39:48;2.72;;;1.38;;
80778;SDS011;70170;47.856;10.956;2024-03-23T05:42:15;1.85;;;1.42;;
80778;SDS011;70170;47.856;10.956;2024-03-23T05:44:44;4.35;;;1.33;;
80778;SDS011;70170;47.856;10.956;2024-03-23T05:47:10;1.30;;;1.20;;
80778;SDS011;70170;47.856;10.956;2024-03-23T05:49:37;7.10;;;1.20;;
80778;SDS011;70170;47.856;10.956;2024-03-23T05:52:03;2.92;;;1.33;;
80778;SDS011;70170;47.856;10.956;2024-03-23T05:54:29;1.48;;;1.10;;
80778;SDS011;70170;47.856;10.956;2024-03-23T05:56:54;1.25;;;1.15;;
80778;SDS011;70170;47.856;10.956;2024-03-23T05:59:20;2.42;;;1.30;;
80778;SDS011;70170;47.856;10.956;2024-03-23T06:01:46;2.42;;;1.50;;
80778;SDS011;70170;47.856;10.956;2024-03-23T06:04:12;2.30;;;1.30;;
80778;SDS011;70170;47.856;10.956;2024-03-23T06:06:38;1.95;;;1.52;;
80778;SDS011;70170;47.856;10.956;2024-03-23T06:09:04;1.95;;;1.67;;
80778;SDS011;70170;47.856;10.956;2024-03-23T06:11:29;1.75;;;1.40;;
80778;SDS011;70170;47.856;10.956;2024-03-23T06:13:55;1.85;;;1.40;;
80778;SDS011;70170;47.856;10.956;2024-03-23T06:16:21;2.50;;;1.63;;
80778;SDS011;70170;47.856;10.956;2024-03-23T06:18:49;1.63;;;1.52;;
80778;SDS011;70170;47.856;10.956;2024-03-23T06:21:14;2.05;;;1.20;;
80778;SDS011;70170;47.856;10.956;2024-03-23T06:23:40;1.75;;;1.38;;
80778;SDS011;70170;47.856;10.956;2024-03-23T06:26:06;5.05;;;1.38;;
80778;SDS011;70170;47.856;10.956;2024-03-23T06:28:32;3.50;;;1.75;;
80778;SDS011;70170;47.856;10.956;2024-03-23T06:30:57;1.40;;;1.30;;
80778;SDS011;70170;47.856;10.956;2024-03-23T06:33:22;1.50;;;1.20;;
80778;SDS011;70170;47.856;10.956;2024-03-23T06:35:52;4.10;;;1.30;;
80778;SDS011;70170;47.856;10.956;2024-03-23T06:38:17;2.78;;;1.55;;
80778;SDS011;70170;47.856;10.956;2024-03-23T06:40:43;1.45;;;1.35;;
80778;SDS011;70170;47.856;10.956;2024-03-23T06:43:12;1.67;;;1.50;;
80778;SDS011;70170;47.856;10.956;2024-03-23T06:45:38;1.73;;;1.63;;
80778;SDS011;70170;47.856;10.956;2024-03-23T06:48:04;1.77;;;1.40;;
80778;SDS011;70170;47.856;10.956;2024-03-23T06:50:32;2.03;;;1.77;;
80778;SDS011;70170;47.856;10.956;2024-03-23T06:52:58;2.58;;;1.30;;
80778;SDS011;70170;47.856;10.956;2024-03-23T06:55:23;5.18;;;1.88;;
80778;SDS011;70170;47.856;10.956;2024-03-23T06:57:50;2.20;;;1.52;;
80778;SDS011;70170;47.856;10.956;2024-03-23T07:00:15;3.13;;;1.70;;
80778;SDS011;70170;47.856;10.956;2024-03-23T07:02:41;4.35;;;1.30;;
80778;SDS011;70170;47.856;10.956;2024-03-23T07:05:06;2.10;;;1.70;;
80778;SDS011;70170;47.856;10.956;2024-03-23T07:07:32;1.45;;;1.35;;
80778;SDS011;70170;47.856;10.956;2024-03-23T07:09:57;2.40;;;1.55;;
80778;SDS011;70170;47.856;10.956;2024-03-23T07:12:22;1.48;;;1.38;;
80778;SDS011;70170;47.856;10.956;2024-03-23T07:14:48;2.65;;;1.40;;
80778;SDS011;70170;47.856;10.956;2024-03-23T07:17:13;3.05;;;1.50;;
80778;SDS011;70170;47.856;10.956;2024-03-23T07:19:38;2.42;;;1.45;;
80778;SDS011;70170;47.856;10.956;2024-03-23T07:22:04;1.60;;;1.50;;
80778;SDS011;70170;47.856;10.956;2024-03-23T07:24:29;3.15;;;1.70;;
80778;SDS011;70170;47.856;10.956;2024-03-23T07:26:56;3.92;;;1.98;;
80778;SDS011;70170;47.856;10.956;2024-03-23T07:29:23;1.52;;;1.42;;
80778;SDS011;70170;47.856;10.956;2024-03-23T07:31:48;2.45;;;1.38;;
80778;SDS011;70170;47.856;10.956;2024-03-23T07:34:13;2.65;;;1.88;;
80778;SDS011;70170;47.856;10.956;2024-03-23T07:36:39;3.47;;;1.88;;
80778;SDS011;70170;47.856;10.956;2024-03-23T07:39:04;2.55;;;1.80;;
80778;SDS011;70170;47.856;10.956;2024-03-23T07:41:30;2.88;;;1.88;;
80778;SDS011;70170;47.856;10.956;2024-03-23T07:43:55;2.05;;;1.73;;
80778;SDS011;70170;47.856;10.956;2024-03-23T07:46:21;2.63;;;1.92;;
80778;SDS011;70170;47.856;10.956;2024-03-23T07:48:46;4.88;;;1.75;;
80778;SDS011;70170;47.856;10.956;2024-03-23T07:51:20;2.70;;;2.08;;
80778;SDS011;70170;47.856;10.956;2024-03-23T07:53:46;1.60;;;1.50;;
80778;SDS011;70170;47.856;10.956;2024-03-23T07:56:12;1.88;;;1.50;;
80778;SDS011;70170;47.856;10.956;2024-03-23T07:58:40;1.70;;;1.48;;
80778;SDS011;70170;47.856;10.956;2024-03-23T08:01:09;2.05;;;1.50;;
80778;SDS011;70170;47.856;10.956;2024-03-23T08:03:45;1.38;;;1.33;;
80778;SDS011;70170;47.856;10.956;2024-03-23T08:06:11;1.67;;;1.58;;
80778;SDS011;70170;47.856;10.956;2024-03-23T08:08:43;1.45;;;1.35;;
80778;SDS011;70170;47.856;10.956;2024-03-23T08:11:10;2.00;;;1.85;;
80778;SDS011;70170;47.856;10.956;2024-03-23T08:13:37;5.30;;;1.80;;
80778;SDS011;70170;47.856;10.956;2024-03-23T08:16:06;1.98;;;1.88;;
80778;SDS011;70170;47.856;10.956;2024-03-23T08:18:31;9.23;;;1.92;;
80778;SDS011;70170;47.856;10.956;2024-03-23T08:20:58;1.70;;;1.60;;
80778;SDS011;70170;47.856;10.956;2024-03-23T08:23:28;2.13;;;1.80;;
80778;SDS011;70170;47.856;10.956;2024-03-23T08:26:01;3.15;;;1.63;;
80778;SDS011;70170;47.856;10.956;2024-03-23T08:28:27;1.38;;;1.33;;
80778;SDS011;70170;47.856;10.956;2024-03-23T08:30:53;2.03;;;1.42;;
80778;SDS011;70170;47.856;10.956;2024-03-23T08:33:19;1.98;;;1.88;;
80778;SDS011;70170;47.856;10.956;2024-03-23T08:35:55;1.30;;;1.20;;
80778;SDS011;70170;47.856;10.956;2024-03-23T08:38:21;3.63;;;1.45;;
80778;SDS011;70170;47.856;10.956;2024-03-23T08:40:47;1.58;;;1.48;;
80778;SDS011;70170;47.856;10.956;2024-03-23T08:43:13;1.95;;;1.75;;
80778;SDS011;70170;47.856;10.956;2024-03-23T08:45:38;1.65;;;1.55;;
80778;SDS011;70170;47.856;10.956;2024-03-23T08:48:04;4.72;;;2.05;;
80778;SDS011;70170;47.856;10.956;2024-03-23T08:50:29;1.77;;;1.67;;
80778;SDS011;70170;47.856;10.956;2024-03-23T08:52:55;4.63;;;1.58;;
80778;SDS011;70170;47.856;10.956;2024-03-23T08:55:20;3.22;;;1.80;;
80778;SDS011;70170;47.856;10.956;2024-03-23T08:57:45;1.85;;;1.75;;
80778;SDS011;70170;47.856;10.956;2024-03-23T09:00:11;2.05;;;1.90;;
80778;SDS011;70170;47.856;10.956;2024-03-23T09:02:37;2.25;;;2.03;;
80778;SDS011;70170;47.856;10.956;2024-03-23T09:05:03;2.63;;;2.00;;
80778;SDS011;70170;47.856;10.956;2024-03-23T09:07:32;2.42;;;2.22;;
80778;SDS011;70170;47.856;10.956;2024-03-23T09:09:58;2.38;;;2.15;;
80778;SDS011;70170;47.856;10.956;2024-03-23T09:12:23;1.88;;;1.77;;
80778;SDS011;70170;47.856;10.956;2024-03-23T09:14:52;2.65;;;2.45;;
80778;SDS011;70170;47.856;10.956;2024-03-23T09:17:21;4.07;;;2.25;;
80778;SDS011;70170;47.856;10.956;2024-03-23T09:19:46;2.30;;;2.10;;
80778;SDS011;70170;47.856;10.956;2024-03-23T09:22:12;2.80;;;2.50;;
80778;SDS011;70170;47.856;10.956;2024-03-23T09:24:38;3.15;;;2.60;;
80778;SDS011;70170;47.856;10.956;2024-03-23T09:27:03;3.78;;;2.70;;
80778;SDS011;70170;47.856;10.956;2024-03-23T09:29:29;2.83;;;2.15;;
80778;SDS011;70170;47.856;10.956;2024-03-23T09:31:54;2.42;;;1.60;;
80778;SDS011;70170;47.856;10.956;2024-03-23T09:34:20;1.30;;;1.30;;
80778;SDS011;70170;47.856;10.956;2024-03-23T09:36:51;1.20;;;1.20;;
80778;SDS011;70170;47.856;10.956;2024-03-23T09:39:17;1.25;;;1.20;;
80778;SDS011;70170;47.856;10.956;2024-03-23T09:41:42;2.72;;;2.28;;
80778;SDS011;70170;47.856;10.956;2024-03-23T09:44:08;1.25;;;1.20;;
80778;SDS011;70170;47.856;10.956;2024-03-23T09:46:34;1.40;;;1.30;;
80778;SDS011;70170;47.856;10.956;2024-03-23T09:49:01;1.13;;;1.02;;
80778;SDS011;70170;47.856;10.956;2024-03-23T09:51:29;1.20;;;0.90;;
80778;SDS011;70170;47.856;10.956;2024-03-23T09:53:55;0.93;;;0.93;;
80778;SDS011;70170;47.856;10.956;2024-03-23T09:56:21;1.85;;;1.00;;
80778;SDS011;70170;47.856;10.956;2024-03-23T09:58:46;0.93;;;0.80;;
80778;SDS011;70170;47.856;10.956;2024-03-23T10:01:12;0.70;;;0.70;;
80778;SDS011;70170;47.856;10.956;2024-03-23T10:03:44;0.90;;;0.68;;
80778;SDS011;70170;47.856;10.956;2024-03-23T10:06:10;0.65;;;0.65;;
80778;SDS011;70170;47.856;10.956;2024-03-23T10:08:35;0.90;;;0.90;;
80778;SDS011;70170;47.856;10.956;2024-03-23T10:11:12;1.00;;;0.90;;
80778;SDS011;70170;47.856;10.956;2024-03-23T10:13:44;0.70;;;0.70;;
80778;SDS011;70170;47.856;10.956;2024-03-23T10:16:12;0.70;;;0.70;;
80778;SDS011;70170;47.856;10.956;2024-03-23T10:18:45;1.20;;;0.83;;
80778;SDS011;70170;47.856;10.956;2024-03-23T10:21:10;1.60;;;1.42;;
80778;SDS011;70170;47.856;10.956;2024-03-23T10:23:40;0.75;;;0.73;;
80778;SDS011;70170;47.856;10.956;2024-03-23T10:26:22;0.85;;;0.85;;
80778;SDS011;70170;47.856;10.956;2024-03-23T10:28:53;1.30;;;1.20;;
80778;SDS011;70170;47.856;10.956;2024-03-23T10:31:32;1.30;;;1.20;;
80778;SDS011;70170;47.856;10.956;2024-03-23T10:33:58;1.00;;;1.00;;
80778;SDS011;70170;47.856;10.956;2024-03-23T10:36:25;2.10;;;1.20;;
80778;SDS011;70170;47.856;10.956;2024-03-23T10:38:51;0.90;;;0.90;;
80778;SDS011;70170;47.856;10.956;2024-03-23T10:41:18;1.20;;;1.10;;
80778;SDS011;70170;47.856;10.956;2024-03-23T10:43:45;1.13;;;1.13;;
80778;SDS011;70170;47.856;10.956;2024-03-23T10:46:12;1.77;;;1.40;;
80778;SDS011;70170;47.856;10.956;2024-03-23T10:48:38;3.05;;;2.10;;
80778;SDS011;70170;47.856;10.956;2024-03-23T10:51:04;1.40;;;1.02;;
80778;SDS011;70170;47.856;10.956;2024-03-23T10:53:32;0.95;;;0.95;;
80778;SDS011;70170;47.856;10.956;2024-03-23T10:55:59;1.67;;;1.35;;
80778;SDS011;70170;47.856;10.956;2024-03-23T10:58:29;1.50;;;1.40;;
80778;SDS011;70170;47.856;10.956;2024-03-23T11:00:56;1.08;;;1.08;;
80778;SDS011;70170;47.856;10.956;2024-03-23T11:03:35;1.52;;;1.42;;
80778;SDS011;70170;47.856;10.956;2024-03-23T11:06:05;2.10;;;1.40;;
80778;SDS011;70170;47.856;10.956;2024-03-23T11:08:40;0.90;;;0.90;;
80778;SDS011;70170;47.856;10.956;2024-03-23T11:11:13;0.93;;;0.93;;
80778;SDS011;70170;47.856;10.956;2024-03-23T11:13:39;1.02;;;0.90;;
80778;SDS011;70170;47.856;10.956;2024-03-23T11:16:21;1.65;;;1.15;;
80778;SDS011;70170;47.856;10.956;2024-03-23T11:18:48;1.58;;;1.27;;
80778;SDS011;70170;47.856;10.956;2024-03-23T11:24:25;1.15;;;1.00;;
80778;SDS011;70170;47.856;10.956;2024-03-23T11:26:50;0.75;;;0.75;;
80778;SDS011;70170;47.856;10.956;2024-03-23T11:29:16;1.15;;;1.00;;
80778;SDS011;70170;47.856;10.956;2024-03-23T11:31:49;1.77;;;1.08;;
80778;SDS011;70170;47.856;10.956;2024-03-23T11:34:16;1.08;;;1.05;;
80778;SDS011;70170;47.856;10.956;2024-03-23T11:36:42;1.25;;;1.10;;
80778;SDS011;70170;47.856;10.956;2024-03-23T11:39:14;1.10;;;1.10;;
80778;SDS011;70170;47.856;10.956;2024-03-23T11:41:52;0.95;;;0.77;;
80778;SDS011;70170;47.856;10.956;2024-03-23T11:44:19;0.95;;;0.95;;
80778;SDS011;70170;47.856;10.956;2024-03-23T11:46:48;1.25;;;1.15;;
80778;SDS011;70170;47.856;10.956;2024-03-23T11:49:27;1.00;;;1.00;;
80778;SDS011;70170;47.856;10.956;2024-03-23T11:51:54;1.05;;;1.00;;
80778;SDS011;70170;47.856;10.956;2024-03-23T11:54:21;0.90;;;0.90;;
80778;SDS011;70170;47.856;10.956;2024-03-23T11:56:57;0.95;;;0.80;;
80778;SDS011;70170;47.856;10.956;2024-03-23T12:01:58;0.70;;;0.70;;
80778;SDS011;70170;47.856;10.956;2024-03-23T12:04:29;1.08;;;0.98;;
80778;SDS011;70170;47.856;10.956;2024-03-23T12:07:14;0.80;;;0.80;;
80778;SDS011;70170;47.856;10.956;2024-03-23T12:12:06;2.25;;;0.80;;
80778;SDS011;70170;47.856;10.956;2024-03-23T12:14:33;2.25;;;0.82;;
80778;SDS011;70170;47.856;10.956;2024-03-23T12:17:08;1.02;;;0.90;;
80778;SDS011;70170;47.856;10.956;2024-03-23T12:19:38;1.27;;;1.00;;
80778;SDS011;70170;47.856;10.956;2024-03-23T12:22:04;1.27;;;0.93;;
80778;SDS011;70170;47.856;10.956;2024-03-23T12:24:30;1.35;;;0.90;;
80778;SDS011;70170;47.856;10.956;2024-03-23T12:27:03;0.80;;;0.80;;
80778;SDS011;70170;47.856;10.956;2024-03-23T12:29:32;2.20;;;1.20;;
80778;SDS011;70170;47.856;10.956;2024-03-23T12:32:01;0.90;;;0.90;;
80778;SDS011;70170;47.856;10.956;2024-03-23T12:34:27;1.58;;;1.00;;
80778;SDS011;70170;47.856;10.956;2024-03-23T12:36:53;2.05;;;1.20;;
80778;SDS011;70170;47.856;10.956;2024-03-23T12:39:19;0.85;;;0.85;;
80778;SDS011;70170;47.856;10.956;2024-03-23T12:41:48;1.63;;;1.35;;
80778;SDS011;70170;47.856;10.956;2024-03-23T12:44:14;3.28;;;1.73;;
80778;SDS011;70170;47.856;10.956;2024-03-23T12:46:40;3.00;;;1.90;;
80778;SDS011;70170;47.856;10.956;2024-03-23T12:49:09;3.53;;;1.60;;
80778;SDS011;70170;47.856;10.956;2024-03-23T12:51:35;3.15;;;1.80;;
80778;SDS011;70170;47.856;10.956;2024-03-23T12:54:00;3.70;;;1.80;;
80778;SDS011;70170;47.856;10.956;2024-03-23T12:56:25;3.65;;;2.80;;
80778;SDS011;70170;47.856;10.956;2024-03-23T12:58:53;2.30;;;1.35;;
80778;SDS011;70170;47.856;10.956;2024-03-23T13:01:20;4.43;;;1.88;;
80778;SDS011;70170;47.856;10.956;2024-03-23T13:03:48;2.83;;;2.28;;
80778;SDS011;70170;47.856;10.956;2024-03-23T13:06:17;2.10;;;1.90;;
80778;SDS011;70170;47.856;10.956;2024-03-23T13:08:46;2.30;;;1.63;;
80778;SDS011;70170;47.856;10.956;2024-03-23T13:11:11;1.65;;;1.55;;
80778;SDS011;70170;47.856;10.956;2024-03-23T13:13:38;1.67;;;1.58;;
80778;SDS011;70170;47.856;10.956;2024-03-23T13:16:03;2.20;;;1.80;;
80778;SDS011;70170;47.856;10.956;2024-03-23T13:18:30;2.75;;;1.15;;
80778;SDS011;70170;47.856;10.956;2024-03-23T13:20:56;3.72;;;1.73;;
80778;SDS011;70170;47.856;10.956;2024-03-23T13:23:21;2.55;;;1.55;;
80778;SDS011;70170;47.856;10.956;2024-03-23T13:25:50;2.63;;;2.05;;
80778;SDS011;70170;47.856;10.956;2024-03-23T13:28:19;5.18;;;2.70;;
80778;SDS011;70170;47.856;10.956;2024-03-23T13:33:17;6.65;;;2.92;;
80778;SDS011;70170;47.856;10.956;2024-03-23T13:35:52;2.08;;;1.48;;
80778;SDS011;70170;47.856;10.956;2024-03-23T13:38:18;4.35;;;1.73;;
80778;SDS011;70170;47.856;10.956;2024-03-23T13:43:23;5.68;;;1.70;;
80778;SDS011;70170;47.856;10.956;2024-03-23T13:45:52;9.40;;;2.00;;
80778;SDS011;70170;47.856;10.956;2024-03-23T13:48:22;5.50;;;2.28;;
80778;SDS011;70170;47.856;10.956;2024-03-23T13:51:04;4.78;;;2.08;;
80778;SDS011;70170;47.856;10.956;2024-03-23T13:53:30;4.35;;;1.55;;
80778;SDS011;70170;47.856;10.956;2024-03-23T13:55:59;4.13;;;2.08;;
80778;SDS011;70170;47.856;10.956;2024-03-23T13:58:24;7.43;;;1.90;;
80778;SDS011;70170;47.856;10.956;2024-03-23T14:00:52;5.55;;;2.00;;
80778;SDS011;70170;47.856;10.956;2024-03-23T14:03:18;3.17;;;1.98;;
80778;SDS011;70170;47.856;10.956;2024-03-23T14:05:43;6.70;;;2.15;;
80778;SDS011;70170;47.856;10.956;2024-03-23T14:08:09;4.65;;;2.15;;
80778;SDS011;70170;47.856;10.956;2024-03-23T14:10:35;2.10;;;1.45;;
80778;SDS011;70170;47.856;10.956;2024-03-23T14:13:05;7.13;;;1.60;;
80778;SDS011;70170;47.856;10.956;2024-03-23T14:15:30;10.70;;;1.83;;
80778;SDS011;70170;47.856;10.956;2024-03-23T14:17:56;11.70;;;5.32;;
80778;SDS011;70170;47.856;10.956;2024-03-23T14:20:22;7.90;;;2.30;;
80778;SDS011;70170;47.856;10.956;2024-03-23T14:22:48;5.05;;;2.13;;
80778;SDS011;70170;47.856;10.956;2024-03-23T14:25:13;10.45;;;3.50;;
80778;SDS011;70170;47.856;10.956;2024-03-23T14:27:39;8.25;;;2.20;;
80778;SDS011;70170;47.856;10.956;2024-03-23T14:30:04;3.35;;;2.05;;
80778;SDS011;70170;47.856;10.956;2024-03-23T14:32:30;6.53;;;2.83;;
80778;SDS011;70170;47.856;10.956;2024-03-23T14:34:59;7.60;;;2.97;;
80778;SDS011;70170;47.856;10.956;2024-03-23T14:37:28;3.08;;;2.33;;
80778;SDS011;70170;47.856;10.956;2024-03-23T14:39:55;2.97;;;2.47;;
80778;SDS011;70170;47.856;10.956;2024-03-23T14:42:21;12.88;;;3.70;;
80778;SDS011;70170;47.856;10.956;2024-03-23T14:44:46;14.88;;;5.05;;
80778;SDS011;70170;47.856;10.956;2024-03-23T14:47:12;7.57;;;3.88;;
80778;SDS011;70170;47.856;10.956;2024-03-23T14:49:37;9.55;;;3.20;;
80778;SDS011;70170;47.856;10.956;2024-03-23T14:52:03;9.70;;;3.50;;
80778;SDS011;70170;47.856;10.956;2024-03-23T14:54:28;12.98;;;3.75;;
80778;SDS011;70170;47.856;10.956;2024-03-23T14:56:54;5.43;;;3.42;;
80778;SDS011;70170;47.856;10.956;2024-03-23T14:59:21;2.70;;;2.22;;
80778;SDS011;70170;47.856;10.956;2024-03-23T15:01:46;6.10;;;2.28;;
80778;SDS011;70170;47.856;10.956;2024-03-23T15:04:11;4.57;;;2.05;;
80778;SDS011;70170;47.856;10.956;2024-03-23T15:06:37;4.30;;;2.30;;
80778;SDS011;70170;47.856;10.956;2024-03-23T15:09:02;4.00;;;2.22;;
80778;SDS011;70170;47.856;10.956;2024-03-23T15:11:32;3.28;;;2.03;;
80778;SDS011;70170;47.856;10.956;2024-03-23T15:13:57;3.40;;;2.00;;
80778;SDS011;70170;47.856;10.956;2024-03-23T15:16:23;7.47;;;2.72;;
80778;SDS011;70170;47.856;10.956;2024-03-23T15:18:48;5.07;;;2.50;;
80778;SDS011;70170;47.856;10.956;2024-03-23T15:21:13;4.70;;;2.50;;
80778;SDS011;70170;47.856;10.956;2024-03-23T15:23:44;3.63;;;1.90;;
80778;SDS011;70170;47.856;10.956;2024-03-23T15:26:10;1.88;;;1.38;;
80778;SDS011;70170;47.856;10.956;2024-03-23T15:28:35;2.97;;;1.85;;
80778;SDS011;70170;47.856;10.956;2024-03-23T15:31:27;5.95;;;1.90;;
80778;SDS011;70170;47.856;10.956;2024-03-23T15:33:52;4.72;;;2.28;;
80778;SDS011;70170;47.856;10.956;2024-03-23T15:36:17;2.85;;;2.20;;
80778;SDS011;70170;47.856;10.956;2024-03-23T15:38:43;2.40;;;2.13;;